This is the latest recevied weather packets stored in our database for station/object YU7OR-2. If no packets are shown the sender has not sent any weather packets the latest 10 day(s).
| Time | Temp. | Humidity | Pressure | Rain* | Wind** | Luminosity | Snow |
|---|---|---|---|---|---|---|---|
| 1777957774 | 15° C | 51% | 1013.1 hPa | 0 mm | - | - | - |
| 1777957474 | 15° C | 50% | 1013.1 hPa | 0 mm | - | - | - |
| 1777957224 | 14.44° C | 52% | 1012.9 hPa | 0 mm | - | - | - |
| 1777956964 | 13.89° C | 54% | 1012.9 hPa | 0 mm | - | - | - |
| 1777956704 | 13.89° C | 54% | 1012.9 hPa | 0 mm | - | - | - |
| 1777956439 | 13.33° C | 55% | 1012.7 hPa | 0 mm | - | - | - |
| 1777956194 | 12.78° C | 56% | 1012.6 hPa | 0 mm | - | - | - |
| 1777955949 | 12.78° C | 57% | 1012.4 hPa | 0 mm | - | - | - |
| 1777955674 | 12.22° C | 58% | 1012.3 hPa | 0 mm | - | - | - |
| 1777955374 | 11.11° C | 53% | 1011.8 hPa | 0 mm | - | - | - |
| 1777955109 | 11.11° C | 54% | 1011.5 hPa | 0 mm | - | - | - |
| 1777954844 | 11.11° C | 54% | 1011.5 hPa | 0 mm | - | - | - |
| 1777954569 | 11.11° C | 54% | 1011.5 hPa | 0 mm | - | - | - |
| 1777954319 | 10° C | 60% | 1011.2 hPa | 0 mm | - | - | - |
| 1777954044 | 10° C | 60% | 1011.2 hPa | 0 mm | - | - | - |
| 1777953749 | 10° C | 63% | 1011.2 hPa | 0 mm | - | - | - |
| 1777953449 | 10° C | 64% | 1011.2 hPa | 0 mm | - | - | - |
| 1777953199 | 10° C | 64% | 1011.2 hPa | 0 mm | - | - | - |
| 1777952954 | 10° C | 64% | 1011.2 hPa | 0 mm | - | - | - |
| 1777952704 | 10° C | 64% | 1011.2 hPa | 0 mm | - | - | - |
| 1777952409 | 10° C | 64% | 1011.1 hPa | 0 mm | - | - | - |
| 1777952164 | 10° C | 64% | 1011.1 hPa | 0 mm | - | - | - |
| 1777951878 | 10° C | 64% | 1011.1 hPa | 0 mm | - | - | - |
| 1777951634 | 10° C | 64% | 1011.1 hPa | 0 mm | - | - | - |
| 1777951339 | 10° C | 63% | 1011.1 hPa | 0 mm | - | - | - |
* Rain latest hour (hover to see other rain measurements)
** Current wind speed in m/s (hover to see current wind gust speed)